Terminal Aerodrome Forecast
Issued by NWS Charleston, SC

Home | Current Version | Previous Version | Text Only | Print | Product List | Glossary On
Versions: 1 2 3 4 5 6 7 8 9 10 11 12 13 14
938
FTUS42 KCHS 111737
TAFSAV
TAF
KSAV 111737Z 1118/1218 16005KT P6SM FEW050
     FM120600 VRB03KT P6SM BKN040
     FM121000 20003KT P6SM SCT004 OVC010
     FM121600 25010KT P6SM SCT004 OVC007=

USA.gov is the U.S. government's official web portal to all federal, state and local government web resources and services.